sensor_id;sensor_type;location;lat;lon;timestamp;temperature;humidity
40151;DHT22;25866;52.420;10.640;2024-03-08T00:01:31;1.90;99.90
40151;DHT22;25866;52.420;10.640;2024-03-08T00:03:57;1.90;99.90
40151;DHT22;25866;52.420;10.640;2024-03-08T00:06:22;1.80;99.90
40151;DHT22;25866;52.420;10.640;2024-03-08T00:08:50;1.80;99.90
40151;DHT22;25866;52.420;10.640;2024-03-08T00:11:16;1.80;99.90
40151;DHT22;25866;52.420;10.640;2024-03-08T00:13:42;1.80;99.90
40151;DHT22;25866;52.420;10.640;2024-03-08T00:16:08;1.80;99.90
40151;DHT22;25866;52.420;10.640;2024-03-08T00:18:35;1.70;99.90
40151;DHT22;25866;52.420;10.640;2024-03-08T00:21:00;1.70;99.90
40151;DHT22;25866;52.420;10.640;2024-03-08T00:23:26;1.70;99.90
40151;DHT22;25866;52.420;10.640;2024-03-08T00:25:54;1.70;99.90
40151;DHT22;25866;52.420;10.640;2024-03-08T00:28:21;1.70;99.90
40151;DHT22;25866;52.420;10.640;2024-03-08T00:30:47;1.60;99.90
40151;DHT22;25866;52.420;10.640;2024-03-08T00:33:13;1.60;99.90
40151;DHT22;25866;52.420;10.640;2024-03-08T00:35:39;1.60;99.90
40151;DHT22;25866;52.420;10.640;2024-03-08T00:38:05;1.60;99.90
40151;DHT22;25866;52.420;10.640;2024-03-08T00:40:30;1.70;99.90
40151;DHT22;25866;52.420;10.640;2024-03-08T00:42:56;1.60;99.90
40151;DHT22;25866;52.420;10.640;2024-03-08T00:45:22;1.60;99.90
40151;DHT22;25866;52.420;10.640;2024-03-08T00:47:49;1.60;99.90
40151;DHT22;25866;52.420;10.640;2024-03-08T00:50:14;1.50;99.90
40151;DHT22;25866;52.420;10.640;2024-03-08T00:52:40;1.50;99.90
40151;DHT22;25866;52.420;10.640;2024-03-08T00:55:06;1.50;99.90
40151;DHT22;25866;52.420;10.640;2024-03-08T00:57:36;1.50;99.90
40151;DHT22;25866;52.420;10.640;2024-03-08T01:00:04;1.40;99.90
40151;DHT22;25866;52.420;10.640;2024-03-08T01:02:35;1.50;99.90
40151;DHT22;25866;52.420;10.640;2024-03-08T01:05:01;1.40;99.90
40151;DHT22;25866;52.420;10.640;2024-03-08T01:07:27;1.40;99.90
40151;DHT22;25866;52.420;10.640;2024-03-08T01:09:53;1.40;99.90
40151;DHT22;25866;52.420;10.640;2024-03-08T01:12:19;1.30;99.90
40151;DHT22;25866;52.420;10.640;2024-03-08T01:14:45;1.30;99.90
40151;DHT22;25866;52.420;10.640;2024-03-08T01:17:11;1.30;99.90
40151;DHT22;25866;52.420;10.640;2024-03-08T01:19:38;1.30;99.90
40151;DHT22;25866;52.420;10.640;2024-03-08T01:22:04;1.30;99.90
40151;DHT22;25866;52.420;10.640;2024-03-08T01:24:30;1.30;99.90
40151;DHT22;25866;52.420;10.640;2024-03-08T01:26:56;1.20;99.90
40151;DHT22;25866;52.420;10.640;2024-03-08T01:29:22;1.20;99.90
40151;DHT22;25866;52.420;10.640;2024-03-08T01:31:48;1.20;99.90
40151;DHT22;25866;52.420;10.640;2024-03-08T01:34:14;1.20;99.90
40151;DHT22;25866;52.420;10.640;2024-03-08T01:36:40;1.20;99.90
40151;DHT22;25866;52.420;10.640;2024-03-08T01:39:05;1.20;99.90
40151;DHT22;25866;52.420;10.640;2024-03-08T01:41:35;1.20;99.90
40151;DHT22;25866;52.420;10.640;2024-03-08T01:44:02;1.10;99.90
40151;DHT22;25866;52.420;10.640;2024-03-08T01:46:28;1.10;99.90
40151;DHT22;25866;52.420;10.640;2024-03-08T01:48:55;1.10;99.90
40151;DHT22;25866;52.420;10.640;2024-03-08T01:51:21;1.10;99.90
40151;DHT22;25866;52.420;10.640;2024-03-08T01:53:48;1.10;99.90
40151;DHT22;25866;52.420;10.640;2024-03-08T01:56:15;1.10;99.90
40151;DHT22;25866;52.420;10.640;2024-03-08T01:58:44;1.10;99.90
40151;DHT22;25866;52.420;10.640;2024-03-08T02:01:12;1.00;99.90
40151;DHT22;25866;52.420;10.640;2024-03-08T02:03:41;1.00;99.90
40151;DHT22;25866;52.420;10.640;2024-03-08T02:06:11;1.00;99.90
40151;DHT22;25866;52.420;10.640;2024-03-08T02:08:39;1.00;99.90
40151;DHT22;25866;52.420;10.640;2024-03-08T02:11:05;1.00;99.90
40151;DHT22;25866;52.420;10.640;2024-03-08T02:13:30;0.90;99.90
40151;DHT22;25866;52.420;10.640;2024-03-08T02:15:58;1.00;99.90
40151;DHT22;25866;52.420;10.640;2024-03-08T02:18:28;1.00;99.90
40151;DHT22;25866;52.420;10.640;2024-03-08T02:20:55;0.90;99.90
40151;DHT22;25866;52.420;10.640;2024-03-08T02:23:23;0.90;99.90
40151;DHT22;25866;52.420;10.640;2024-03-08T02:25:51;0.90;99.90
40151;DHT22;25866;52.420;10.640;2024-03-08T02:28:17;0.90;99.90
40151;DHT22;25866;52.420;10.640;2024-03-08T02:30:46;0.80;99.90
40151;DHT22;25866;52.420;10.640;2024-03-08T02:33:14;0.80;99.90
40151;DHT22;25866;52.420;10.640;2024-03-08T02:35:47;0.80;99.90
40151;DHT22;25866;52.420;10.640;2024-03-08T02:38:21;0.70;99.90
40151;DHT22;25866;52.420;10.640;2024-03-08T02:40:49;0.70;99.90
40151;DHT22;25866;52.420;10.640;2024-03-08T02:43:15;0.60;99.90
40151;DHT22;25866;52.420;10.640;2024-03-08T02:45:42;0.60;99.90
40151;DHT22;25866;52.420;10.640;2024-03-08T02:48:08;0.50;99.90
40151;DHT22;25866;52.420;10.640;2024-03-08T02:50:34;0.50;99.90
40151;DHT22;25866;52.420;10.640;2024-03-08T02:53:02;0.50;99.90
40151;DHT22;25866;52.420;10.640;2024-03-08T02:55:28;0.50;99.90
40151;DHT22;25866;52.420;10.640;2024-03-08T02:57:55;0.50;99.90
40151;DHT22;25866;52.420;10.640;2024-03-08T03:00:21;0.40;99.90
40151;DHT22;25866;52.420;10.640;2024-03-08T03:02:49;0.40;99.90
40151;DHT22;25866;52.420;10.640;2024-03-08T03:05:23;0.40;99.90
40151;DHT22;25866;52.420;10.640;2024-03-08T03:07:50;0.40;99.90
40151;DHT22;25866;52.420;10.640;2024-03-08T03:10:19;0.40;99.90
40151;DHT22;25866;52.420;10.640;2024-03-08T03:12:48;0.40;99.90
40151;DHT22;25866;52.420;10.640;2024-03-08T03:15:17;0.30;99.90
40151;DHT22;25866;52.420;10.640;2024-03-08T03:17:47;0.30;99.90
40151;DHT22;25866;52.420;10.640;2024-03-08T03:20:14;0.30;99.90
40151;DHT22;25866;52.420;10.640;2024-03-08T03:22:43;0.40;99.90
40151;DHT22;25866;52.420;10.640;2024-03-08T03:25:12;0.30;99.90
40151;DHT22;25866;52.420;10.640;2024-03-08T03:27:38;0.30;99.90
40151;DHT22;25866;52.420;10.640;2024-03-08T03:30:06;0.30;99.90
40151;DHT22;25866;52.420;10.640;2024-03-08T03:32:51;0.20;99.90
40151;DHT22;25866;52.420;10.640;2024-03-08T03:35:20;0.20;99.90
40151;DHT22;25866;52.420;10.640;2024-03-08T03:37:49;0.20;99.90
40151;DHT22;25866;52.420;10.640;2024-03-08T03:40:36;0.20;99.90
40151;DHT22;25866;52.420;10.640;2024-03-08T03:43:03;0.20;99.90
40151;DHT22;25866;52.420;10.640;2024-03-08T03:45:29;0.20;99.90
40151;DHT22;25866;52.420;10.640;2024-03-08T03:47:59;0.20;99.90
40151;DHT22;25866;52.420;10.640;2024-03-08T03:50:26;0.20;99.90
40151;DHT22;25866;52.420;10.640;2024-03-08T03:52:51;0.20;99.90
40151;DHT22;25866;52.420;10.640;2024-03-08T03:55:17;0.20;99.90
40151;DHT22;25866;52.420;10.640;2024-03-08T03:57:45;0.20;99.90
40151;DHT22;25866;52.420;10.640;2024-03-08T04:00:12;0.20;99.90
40151;DHT22;25866;52.420;10.640;2024-03-08T04:02:38;0.20;99.90
40151;DHT22;25866;52.420;10.640;2024-03-08T04:05:09;0.10;99.90
40151;DHT22;25866;52.420;10.640;2024-03-08T04:07:36;0.10;99.90
40151;DHT22;25866;52.420;10.640;2024-03-08T04:10:03;0.10;99.90
40151;DHT22;25866;52.420;10.640;2024-03-08T04:12:29;0.10;99.90
40151;DHT22;25866;52.420;10.640;2024-03-08T04:14:56;0.10;99.90
40151;DHT22;25866;52.420;10.640;2024-03-08T04:17:22;0.10;99.90
40151;DHT22;25866;52.420;10.640;2024-03-08T04:19:50;0.10;99.90
40151;DHT22;25866;52.420;10.640;2024-03-08T04:22:16;0.10;99.90
40151;DHT22;25866;52.420;10.640;2024-03-08T04:24:44;0.10;99.90
40151;DHT22;25866;52.420;10.640;2024-03-08T04:27:10;0.00;99.90
40151;DHT22;25866;52.420;10.640;2024-03-08T04:29:36;0.00;99.90
40151;DHT22;25866;52.420;10.640;2024-03-08T04:32:06;0.00;99.90
40151;DHT22;25866;52.420;10.640;2024-03-08T04:34:34;0.00;99.90
40151;DHT22;25866;52.420;10.640;2024-03-08T04:37:01;0.00;99.90
40151;DHT22;25866;52.420;10.640;2024-03-08T04:39:27;0.00;99.90
40151;DHT22;25866;52.420;10.640;2024-03-08T04:41:55;0.00;99.90
40151;DHT22;25866;52.420;10.640;2024-03-08T04:44:23;0.00;99.90
40151;DHT22;25866;52.420;10.640;2024-03-08T04:46:50;-0.10;99.90
40151;DHT22;25866;52.420;10.640;2024-03-08T04:49:16;-0.10;99.90
40151;DHT22;25866;52.420;10.640;2024-03-08T04:51:42;-0.10;99.90
40151;DHT22;25866;52.420;10.640;2024-03-08T04:54:08;-0.20;99.90
40151;DHT22;25866;52.420;10.640;2024-03-08T04:56:34;-0.20;99.90
40151;DHT22;25866;52.420;10.640;2024-03-08T04:59:00;-0.20;99.90
40151;DHT22;25866;52.420;10.640;2024-03-08T05:01:25;-0.30;99.90
40151;DHT22;25866;52.420;10.640;2024-03-08T05:03:51;-0.30;99.90
40151;DHT22;25866;52.420;10.640;2024-03-08T05:06:21;-0.30;99.90
40151;DHT22;25866;52.420;10.640;2024-03-08T05:08:46;-0.30;99.90
40151;DHT22;25866;52.420;10.640;2024-03-08T05:11:12;-0.40;99.90
40151;DHT22;25866;52.420;10.640;2024-03-08T05:13:40;-0.40;99.90
40151;DHT22;25866;52.420;10.640;2024-03-08T05:16:06;-0.40;99.90
40151;DHT22;25866;52.420;10.640;2024-03-08T05:18:36;-0.40;99.90
40151;DHT22;25866;52.420;10.640;2024-03-08T05:21:02;-0.40;99.90
40151;DHT22;25866;52.420;10.640;2024-03-08T05:23:30;-0.40;99.90
40151;DHT22;25866;52.420;10.640;2024-03-08T05:25:56;-0.40;99.90
40151;DHT22;25866;52.420;10.640;2024-03-08T05:28:23;-0.40;99.90
40151;DHT22;25866;52.420;10.640;2024-03-08T05:30:48;-0.40;99.90
40151;DHT22;25866;52.420;10.640;2024-03-08T05:33:14;-0.50;99.90
40151;DHT22;25866;52.420;10.640;2024-03-08T05:35:40;-0.40;99.90
40151;DHT22;25866;52.420;10.640;2024-03-08T05:38:06;-0.50;99.90
40151;DHT22;25866;52.420;10.640;2024-03-08T05:40:32;-0.50;99.90
40151;DHT22;25866;52.420;10.640;2024-03-08T05:42:59;-0.50;99.90
40151;DHT22;25866;52.420;10.640;2024-03-08T05:45:25;-0.40;99.90
40151;DHT22;25866;52.420;10.640;2024-03-08T05:47:54;-0.50;99.90
40151;DHT22;25866;52.420;10.640;2024-03-08T05:50:20;-0.50;99.90
40151;DHT22;25866;52.420;10.640;2024-03-08T05:52:46;-0.50;99.90
40151;DHT22;25866;52.420;10.640;2024-03-08T05:55:13;-0.50;99.90
40151;DHT22;25866;52.420;10.640;2024-03-08T05:57:41;-0.50;99.90
40151;DHT22;25866;52.420;10.640;2024-03-08T06:00:08;-0.50;99.90
40151;DHT22;25866;52.420;10.640;2024-03-08T06:02:37;-0.50;99.90
40151;DHT22;25866;52.420;10.640;2024-03-08T06:05:08;-0.50;99.90
40151;DHT22;25866;52.420;10.640;2024-03-08T06:07:34;-0.50;99.90
40151;DHT22;25866;52.420;10.640;2024-03-08T06:10:00;-0.50;99.90
40151;DHT22;25866;52.420;10.640;2024-03-08T06:12:26;-0.50;99.90
40151;DHT22;25866;52.420;10.640;2024-03-08T06:14:54;-0.50;99.90
40151;DHT22;25866;52.420;10.640;2024-03-08T06:17:20;-0.50;99.90
40151;DHT22;25866;52.420;10.640;2024-03-08T06:19:51;-0.50;99.90
40151;DHT22;25866;52.420;10.640;2024-03-08T06:22:17;-0.50;99.90
40151;DHT22;25866;52.420;10.640;2024-03-08T06:24:43;-0.50;99.90
40151;DHT22;25866;52.420;10.640;2024-03-08T06:27:09;-0.50;99.90
40151;DHT22;25866;52.420;10.640;2024-03-08T06:29:35;-0.40;99.90
40151;DHT22;25866;52.420;10.640;2024-03-08T06:32:02;-0.40;99.90
40151;DHT22;25866;52.420;10.640;2024-03-08T06:34:28;-0.40;99.90
40151;DHT22;25866;52.420;10.640;2024-03-08T06:36:54;-0.40;99.90
40151;DHT22;25866;52.420;10.640;2024-03-08T06:39:26;-0.40;99.90
40151;DHT22;25866;52.420;10.640;2024-03-08T06:41:52;-0.30;99.90
40151;DHT22;25866;52.420;10.640;2024-03-08T06:44:18;-0.30;99.90
40151;DHT22;25866;52.420;10.640;2024-03-08T06:46:47;-0.30;99.90
40151;DHT22;25866;52.420;10.640;2024-03-08T06:49:14;-0.30;99.90
40151;DHT22;25866;52.420;10.640;2024-03-08T06:51:41;-0.20;99.90
40151;DHT22;25866;52.420;10.640;2024-03-08T06:54:07;-0.10;99.90
40151;DHT22;25866;52.420;10.640;2024-03-08T06:56:36;-0.20;99.90
40151;DHT22;25866;52.420;10.640;2024-03-08T06:59:02;-0.10;99.90
40151;DHT22;25866;52.420;10.640;2024-03-08T07:01:31;-0.10;99.90
40151;DHT22;25866;52.420;10.640;2024-03-08T07:03:58;-0.10;99.90
40151;DHT22;25866;52.420;10.640;2024-03-08T07:06:24;0.00;99.90
40151;DHT22;25866;52.420;10.640;2024-03-08T07:08:49;0.00;99.90
40151;DHT22;25866;52.420;10.640;2024-03-08T07:11:15;0.10;99.90
40151;DHT22;25866;52.420;10.640;2024-03-08T07:13:45;0.10;99.90
40151;DHT22;25866;52.420;10.640;2024-03-08T07:16:11;0.20;99.90
40151;DHT22;25866;52.420;10.640;2024-03-08T07:18:38;0.30;99.90
40151;DHT22;25866;52.420;10.640;2024-03-08T07:21:09;0.30;99.90
40151;DHT22;25866;52.420;10.640;2024-03-08T07:23:38;0.40;99.90
40151;DHT22;25866;52.420;10.640;2024-03-08T07:26:29;0.40;99.90
40151;DHT22;25866;52.420;10.640;2024-03-08T07:28:56;0.40;99.90
40151;DHT22;25866;52.420;10.640;2024-03-08T07:31:22;0.50;99.90
40151;DHT22;25866;52.420;10.640;2024-03-08T07:33:51;0.60;99.90
40151;DHT22;25866;52.420;10.640;2024-03-08T07:36:16;0.70;99.90
40151;DHT22;25866;52.420;10.640;2024-03-08T07:38:42;0.70;99.90
40151;DHT22;25866;52.420;10.640;2024-03-08T07:41:09;0.80;99.90
40151;DHT22;25866;52.420;10.640;2024-03-08T07:43:35;0.90;99.90
40151;DHT22;25866;52.420;10.640;2024-03-08T07:46:01;0.90;99.90
40151;DHT22;25866;52.420;10.640;2024-03-08T07:48:27;1.00;99.90
40151;DHT22;25866;52.420;10.640;2024-03-08T07:50:53;1.10;99.90
40151;DHT22;25866;52.420;10.640;2024-03-08T07:53:19;1.20;99.90
40151;DHT22;25866;52.420;10.640;2024-03-08T07:55:44;1.20;99.90
40151;DHT22;25866;52.420;10.640;2024-03-08T07:58:10;1.30;99.90
40151;DHT22;25866;52.420;10.640;2024-03-08T08:00:36;1.40;99.90
40151;DHT22;25866;52.420;10.640;2024-03-08T08:03:03;1.50;99.90
40151;DHT22;25866;52.420;10.640;2024-03-08T08:05:30;1.50;99.90
40151;DHT22;25866;52.420;10.640;2024-03-08T08:08:01;1.60;99.90
40151;DHT22;25866;52.420;10.640;2024-03-08T08:10:34;1.70;99.90
40151;DHT22;25866;52.420;10.640;2024-03-08T08:13:00;1.80;99.90
40151;DHT22;25866;52.420;10.640;2024-03-08T08:15:25;1.90;99.90
40151;DHT22;25866;52.420;10.640;2024-03-08T08:17:53;2.00;99.90
40151;DHT22;25866;52.420;10.640;2024-03-08T08:20:19;2.10;99.90
40151;DHT22;25866;52.420;10.640;2024-03-08T08:22:45;2.20;99.90
40151;DHT22;25866;52.420;10.640;2024-03-08T08:25:11;2.30;99.90
40151;DHT22;25866;52.420;10.640;2024-03-08T08:27:39;2.40;99.90
40151;DHT22;25866;52.420;10.640;2024-03-08T08:30:11;2.40;99.90
40151;DHT22;25866;52.420;10.640;2024-03-08T08:32:38;2.50;99.90
40151;DHT22;25866;52.420;10.640;2024-03-08T08:35:08;2.60;99.90
40151;DHT22;25866;52.420;10.640;2024-03-08T08:37:34;2.60;99.90
40151;DHT22;25866;52.420;10.640;2024-03-08T08:40:03;2.70;99.90
40151;DHT22;25866;52.420;10.640;2024-03-08T08:42:34;2.80;99.90
40151;DHT22;25866;52.420;10.640;2024-03-08T08:45:00;2.80;99.90
40151;DHT22;25866;52.420;10.640;2024-03-08T08:47:29;2.90;99.90
40151;DHT22;25866;52.420;10.640;2024-03-08T08:49:55;3.00;99.90
40151;DHT22;25866;52.420;10.640;2024-03-08T08:52:21;3.10;99.90
40151;DHT22;25866;52.420;10.640;2024-03-08T08:54:47;3.20;99.90
40151;DHT22;25866;52.420;10.640;2024-03-08T08:57:15;3.20;99.90
40151;DHT22;25866;52.420;10.640;2024-03-08T08:59:41;3.20;99.90
40151;DHT22;25866;52.420;10.640;2024-03-08T09:02:07;3.30;99.90
40151;DHT22;25866;52.420;10.640;2024-03-08T09:04:34;3.40;99.90
40151;DHT22;25866;52.420;10.640;2024-03-08T09:07:01;3.50;99.90
40151;DHT22;25866;52.420;10.640;2024-03-08T09:09:27;3.60;99.90
40151;DHT22;25866;52.420;10.640;2024-03-08T09:11:53;3.70;99.90
40151;DHT22;25866;52.420;10.640;2024-03-08T09:14:20;3.80;99.90
40151;DHT22;25866;52.420;10.640;2024-03-08T09:16:46;3.80;99.90
40151;DHT22;25866;52.420;10.640;2024-03-08T09:19:13;3.70;99.90
40151;DHT22;25866;52.420;10.640;2024-03-08T09:21:39;3.80;99.90
40151;DHT22;25866;52.420;10.640;2024-03-08T09:24:06;3.90;99.90
40151;DHT22;25866;52.420;10.640;2024-03-08T09:26:32;4.00;99.90
40151;DHT22;25866;52.420;10.640;2024-03-08T09:28:59;4.10;99.90
40151;DHT22;25866;52.420;10.640;2024-03-08T09:31:25;4.10;99.90
40151;DHT22;25866;52.420;10.640;2024-03-08T09:33:51;4.20;99.90
40151;DHT22;25866;52.420;10.640;2024-03-08T09:36:17;4.30;99.90
40151;DHT22;25866;52.420;10.640;2024-03-08T09:38:43;4.30;99.90
40151;DHT22;25866;52.420;10.640;2024-03-08T09:41:10;4.30;99.90
40151;DHT22;25866;52.420;10.640;2024-03-08T09:43:39;4.50;99.90
40151;DHT22;25866;52.420;10.640;2024-03-08T09:46:05;4.50;99.90
40151;DHT22;25866;52.420;10.640;2024-03-08T09:48:35;4.70;99.90
40151;DHT22;25866;52.420;10.640;2024-03-08T09:51:02;4.80;99.90
40151;DHT22;25866;52.420;10.640;2024-03-08T09:53:28;4.90;99.90
40151;DHT22;25866;52.420;10.640;2024-03-08T09:55:55;5.00;99.90
40151;DHT22;25866;52.420;10.640;2024-03-08T09:58:22;5.10;99.90
40151;DHT22;25866;52.420;10.640;2024-03-08T10:01:08;5.10;99.90
40151;DHT22;25866;52.420;10.640;2024-03-08T10:03:34;5.10;99.90
40151;DHT22;25866;52.420;10.640;2024-03-08T10:06:01;5.30;99.90
40151;DHT22;25866;52.420;10.640;2024-03-08T10:08:28;5.30;99.90
40151;DHT22;25866;52.420;10.640;2024-03-08T10:10:57;5.30;99.90
40151;DHT22;25866;52.420;10.640;2024-03-08T10:13:26;5.30;99.90
40151;DHT22;25866;52.420;10.640;2024-03-08T10:15:53;5.40;99.90
40151;DHT22;25866;52.420;10.640;2024-03-08T10:18:19;5.50;99.90
40151;DHT22;25866;52.420;10.640;2024-03-08T10:20:53;5.50;99.90
40151;DHT22;25866;52.420;10.640;2024-03-08T10:23:30;5.60;99.90
40151;DHT22;25866;52.420;10.640;2024-03-08T10:25:56;5.70;99.90
40151;DHT22;25866;52.420;10.640;2024-03-08T10:28:24;5.60;99.90
40151;DHT22;25866;52.420;10.640;2024-03-08T10:30:56;5.70;99.90
40151;DHT22;25866;52.420;10.640;2024-03-08T10:33:23;5.90;99.90
40151;DHT22;25866;52.420;10.640;2024-03-08T10:35:49;5.90;99.90
40151;DHT22;25866;52.420;10.640;2024-03-08T10:38:16;6.00;99.90
40151;DHT22;25866;52.420;10.640;2024-03-08T10:40:45;6.00;99.90
40151;DHT22;25866;52.420;10.640;2024-03-08T10:43:22;6.20;99.90
40151;DHT22;25866;52.420;10.640;2024-03-08T10:45:53;6.30;99.90
40151;DHT22;25866;52.420;10.640;2024-03-08T10:48:32;6.40;99.90
40151;DHT22;25866;52.420;10.640;2024-03-08T10:51:02;6.70;99.90
40151;DHT22;25866;52.420;10.640;2024-03-08T10:53:29;6.70;99.90
40151;DHT22;25866;52.420;10.640;2024-03-08T10:55:58;6.70;99.90
40151;DHT22;25866;52.420;10.640;2024-03-08T10:58:27;6.70;99.90
40151;DHT22;25866;52.420;10.640;2024-03-08T11:00:54;6.70;99.90
40151;DHT22;25866;52.420;10.640;2024-03-08T11:06:29;6.90;99.90
40151;DHT22;25866;52.420;10.640;2024-03-08T11:08:55;7.00;99.90
40151;DHT22;25866;52.420;10.640;2024-03-08T11:11:33;7.10;99.90
40151;DHT22;25866;52.420;10.640;2024-03-08T11:14:02;7.20;99.90
40151;DHT22;25866;52.420;10.640;2024-03-08T11:19:00;7.20;99.90
40151;DHT22;25866;52.420;10.640;2024-03-08T11:21:33;7.30;99.90
40151;DHT22;25866;52.420;10.640;2024-03-08T11:24:06;7.20;99.90
40151;DHT22;25866;52.420;10.640;2024-03-08T11:26:33;7.20;99.90
40151;DHT22;25866;52.420;10.640;2024-03-08T11:32:26;7.40;99.90
40151;DHT22;25866;52.420;10.640;2024-03-08T11:34:50;7.60;99.90
40151;DHT22;25866;52.420;10.640;2024-03-08T11:37:20;7.70;99.90
40151;DHT22;25866;52.420;10.640;2024-03-08T11:39:51;7.70;99.90
40151;DHT22;25866;52.420;10.640;2024-03-08T11:42:20;7.80;99.90
40151;DHT22;25866;52.420;10.640;2024-03-08T11:44:46;7.80;99.90
40151;DHT22;25866;52.420;10.640;2024-03-08T11:47:14;7.90;99.90
40151;DHT22;25866;52.420;10.640;2024-03-08T11:49:40;8.10;99.90
40151;DHT22;25866;52.420;10.640;2024-03-08T11:52:19;8.20;99.90
40151;DHT22;25866;52.420;10.640;2024-03-08T11:54:52;8.10;99.90
40151;DHT22;25866;52.420;10.640;2024-03-08T11:57:23;8.10;99.90
40151;DHT22;25866;52.420;10.640;2024-03-08T11:59:50;8.10;99.90
40151;DHT22;25866;52.420;10.640;2024-03-08T12:02:17;8.10;99.90
40151;DHT22;25866;52.420;10.640;2024-03-08T12:04:45;8.10;99.90
40151;DHT22;25866;52.420;10.640;2024-03-08T12:07:14;8.20;99.90
40151;DHT22;25866;52.420;10.640;2024-03-08T12:09:44;8.30;99.90
40151;DHT22;25866;52.420;10.640;2024-03-08T12:12:31;8.40;99.90
40151;DHT22;25866;52.420;10.640;2024-03-08T12:14:58;8.50;99.90
40151;DHT22;25866;52.420;10.640;2024-03-08T12:17:23;8.60;99.90
40151;DHT22;25866;52.420;10.640;2024-03-08T12:19:50;8.50;99.90
40151;DHT22;25866;52.420;10.640;2024-03-08T12:22:15;8.40;99.90
40151;DHT22;25866;52.420;10.640;2024-03-08T12:24:41;8.50;99.90
40151;DHT22;25866;52.420;10.640;2024-03-08T12:27:20;8.50;99.90
40151;DHT22;25866;52.420;10.640;2024-03-08T12:29:46;8.50;99.90
40151;DHT22;25866;52.420;10.640;2024-03-08T12:32:12;8.30;99.90
40151;DHT22;25866;52.420;10.640;2024-03-08T12:34:38;8.40;99.90
40151;DHT22;25866;52.420;10.640;2024-03-08T12:37:05;8.40;99.90
40151;DHT22;25866;52.420;10.640;2024-03-08T12:39:32;8.40;99.90
40151;DHT22;25866;52.420;10.640;2024-03-08T12:41:58;8.50;99.90
40151;DHT22;25866;52.420;10.640;2024-03-08T12:44:25;8.60;99.90
40151;DHT22;25866;52.420;10.640;2024-03-08T12:46:51;8.60;99.90
40151;DHT22;25866;52.420;10.640;2024-03-08T12:49:19;8.70;99.90
40151;DHT22;25866;52.420;10.640;2024-03-08T12:51:48;8.70;99.90
40151;DHT22;25866;52.420;10.640;2024-03-08T12:54:14;8.70;99.90
40151;DHT22;25866;52.420;10.640;2024-03-08T12:56:40;8.80;99.90
40151;DHT22;25866;52.420;10.640;2024-03-08T12:59:07;8.80;99.90
40151;DHT22;25866;52.420;10.640;2024-03-08T13:01:34;8.90;99.90
40151;DHT22;25866;52.420;10.640;2024-03-08T13:04:03;8.80;99.90
40151;DHT22;25866;52.420;10.640;2024-03-08T13:06:29;8.90;99.90
40151;DHT22;25866;52.420;10.640;2024-03-08T13:08:57;9.10;99.90
40151;DHT22;25866;52.420;10.640;2024-03-08T13:11:25;9.10;99.90
40151;DHT22;25866;52.420;10.640;2024-03-08T13:13:51;9.10;99.90
40151;DHT22;25866;52.420;10.640;2024-03-08T13:16:18;9.10;99.90
40151;DHT22;25866;52.420;10.640;2024-03-08T13:18:45;9.10;99.90
40151;DHT22;25866;52.420;10.640;2024-03-08T13:21:14;9.10;99.90
40151;DHT22;25866;52.420;10.640;2024-03-08T13:23:44;9.20;99.90
40151;DHT22;25866;52.420;10.640;2024-03-08T13:26:15;9.20;99.90
40151;DHT22;25866;52.420;10.640;2024-03-08T13:28:50;9.10;99.90
40151;DHT22;25866;52.420;10.640;2024-03-08T13:31:20;9.10;99.90
40151;DHT22;25866;52.420;10.640;2024-03-08T13:33:46;9.10;99.90
40151;DHT22;25866;52.420;10.640;2024-03-08T13:36:13;9.20;99.90
40151;DHT22;25866;52.420;10.640;2024-03-08T13:38:42;9.20;99.90
40151;DHT22;25866;52.420;10.640;2024-03-08T13:41:10;9.20;99.90
40151;DHT22;25866;52.420;10.640;2024-03-08T13:43:38;9.10;99.90
40151;DHT22;25866;52.420;10.640;2024-03-08T13:46:05;9.10;99.90
40151;DHT22;25866;52.420;10.640;2024-03-08T13:48:33;9.10;99.90
40151;DHT22;25866;52.420;10.640;2024-03-08T13:50:59;9.10;99.90
40151;DHT22;25866;52.420;10.640;2024-03-08T13:53:26;9.20;99.90
40151;DHT22;25866;52.420;10.640;2024-03-08T13:55:52;9.20;99.90
40151;DHT22;25866;52.420;10.640;2024-03-08T13:58:18;9.20;99.90
40151;DHT22;25866;52.420;10.640;2024-03-08T14:00:46;9.20;99.90
40151;DHT22;25866;52.420;10.640;2024-03-08T14:03:13;9.20;99.90
40151;DHT22;25866;52.420;10.640;2024-03-08T14:05:42;9.20;99.90
40151;DHT22;25866;52.420;10.640;2024-03-08T14:08:09;9.10;99.90
40151;DHT22;25866;52.420;10.640;2024-03-08T14:10:35;9.00;99.90
40151;DHT22;25866;52.420;10.640;2024-03-08T14:13:04;9.00;99.90
40151;DHT22;25866;52.420;10.640;2024-03-08T14:15:34;9.00;99.90
40151;DHT22;25866;52.420;10.640;2024-03-08T14:18:07;9.10;99.90
40151;DHT22;25866;52.420;10.640;2024-03-08T14:20:33;9.20;99.90
40151;DHT22;25866;52.420;10.640;2024-03-08T14:22:59;9.20;99.80
40151;DHT22;25866;52.420;10.640;2024-03-08T14:25:24;9.10;99.50
40151;DHT22;25866;52.420;10.640;2024-03-08T14:27:53;9.20;99.90
40151;DHT22;25866;52.420;10.640;2024-03-08T14:30:20;9.10;99.20
40151;DHT22;25866;52.420;10.640;2024-03-08T14:33:06;9.00;99.70
40151;DHT22;25866;52.420;10.640;2024-03-08T14:35:35;8.90;99.70
40151;DHT22;25866;52.420;10.640;2024-03-08T14:38:02;8.90;99.90
40151;DHT22;25866;52.420;10.640;2024-03-08T14:40:28;8.90;99.80
40151;DHT22;25866;52.420;10.640;2024-03-08T14:43:02;9.00;99.70
40151;DHT22;25866;52.420;10.640;2024-03-08T14:45:30;8.90;99.70
40151;DHT22;25866;52.420;10.640;2024-03-08T14:47:56;8.90;99.40
40151;DHT22;25866;52.420;10.640;2024-03-08T14:50:24;8.90;99.30
40151;DHT22;25866;52.420;10.640;2024-03-08T14:52:52;8.80;99.50
40151;DHT22;25866;52.420;10.640;2024-03-08T14:55:18;8.80;99.60
40151;DHT22;25866;52.420;10.640;2024-03-08T14:57:51;8.70;99.40
40151;DHT22;25866;52.420;10.640;2024-03-08T15:00:20;8.70;99.90
40151;DHT22;25866;52.420;10.640;2024-03-08T15:02:55;8.70;99.90
40151;DHT22;25866;52.420;10.640;2024-03-08T15:05:24;8.70;99.90
40151;DHT22;25866;52.420;10.640;2024-03-08T15:07:55;8.60;99.90
40151;DHT22;25866;52.420;10.640;2024-03-08T15:10:21;8.60;99.40
40151;DHT22;25866;52.420;10.640;2024-03-08T15:12:51;8.60;99.60
40151;DHT22;25866;52.420;10.640;2024-03-08T15:15:22;8.50;99.30
40151;DHT22;25866;52.420;10.640;2024-03-08T15:17:50;8.50;99.90
40151;DHT22;25866;52.420;10.640;2024-03-08T15:20:17;8.40;99.80
40151;DHT22;25866;52.420;10.640;2024-03-08T15:22:50;8.40;99.90
40151;DHT22;25866;52.420;10.640;2024-03-08T15:25:16;8.40;99.90
40151;DHT22;25866;52.420;10.640;2024-03-08T15:27:54;8.40;99.90
40151;DHT22;25866;52.420;10.640;2024-03-08T15:30:21;8.40;99.90
40151;DHT22;25866;52.420;10.640;2024-03-08T15:32:56;8.40;99.90
40151;DHT22;25866;52.420;10.640;2024-03-08T15:35:24;8.50;99.90
40151;DHT22;25866;52.420;10.640;2024-03-08T15:37:51;8.40;99.90
40151;DHT22;25866;52.420;10.640;2024-03-08T15:40:18;8.40;99.90